createdAt,value
2023-02-22T00:00:43.239Z,6.49
2023-02-22T00:03:16.200Z,6.34
2023-02-22T00:05:47.212Z,6.34
2023-02-22T00:08:15.415Z,6.27
2023-02-22T00:10:41.849Z,6.19
2023-02-22T00:13:09.777Z,6.13
2023-02-22T00:15:36.504Z,6.07
2023-02-22T00:18:04.823Z,5.90
2023-02-22T00:20:31.167Z,5.85
2023-02-22T00:22:57.603Z,5.78
2023-02-22T00:25:24.824Z,5.72
2023-02-22T00:27:52.825Z,5.69
2023-02-22T00:30:27.025Z,5.63
2023-02-22T00:32:55.851Z,5.58
2023-02-22T00:35:25.692Z,5.51
2023-02-22T00:37:55.568Z,5.45
2023-02-22T00:40:24.797Z,5.39
2023-02-22T00:42:51.874Z,5.31
2023-02-22T00:45:24.053Z,5.26
2023-02-22T00:47:51.095Z,5.21
2023-02-22T00:50:18.804Z,5.18
2023-02-22T00:52:45.715Z,5.13
2023-02-22T00:55:24.827Z,5.07
2023-02-22T00:57:51.281Z,5.00
2023-02-22T01:00:24.288Z,4.98
2023-02-22T01:02:51.720Z,4.96
2023-02-22T01:05:23.897Z,4.92
2023-02-22T01:07:55.598Z,4.84
2023-02-22T01:10:24.803Z,4.72
2023-02-22T01:12:52.455Z,4.61
2023-02-22T01:15:23.789Z,4.62
2023-02-22T01:17:53.372Z,4.58
2023-02-22T01:20:22.726Z,4.58
2023-02-22T01:22:51.446Z,4.63
2023-02-22T01:25:22.058Z,4.64
2023-02-22T01:27:50.082Z,4.68
2023-02-22T01:30:21.835Z,4.75
2023-02-22T01:32:48.229Z,4.83
2023-02-22T01:35:18.381Z,4.92
2023-02-22T01:37:45.342Z,4.96
2023-02-22T01:40:20.222Z,5.00
2023-02-22T01:42:55.352Z,5.07
2023-02-22T01:45:30.790Z,5.14
2023-02-22T01:48:28.549Z,5.19
2023-02-22T01:51:03.461Z,5.23
2023-02-22T01:53:36.964Z,5.28
2023-02-22T01:56:04.514Z,5.28
2023-02-22T01:58:33.504Z,5.29
2023-02-22T02:01:01.049Z,5.32
2023-02-22T02:03:33.192Z,5.29
2023-02-22T02:06:02.725Z,5.30
2023-02-22T02:08:39.767Z,5.35
2023-02-22T02:11:09.223Z,5.38
2023-02-22T02:13:36.187Z,5.40
2023-02-22T02:16:02.540Z,5.40
2023-02-22T02:18:29.333Z,5.40
2023-02-22T02:21:24.074Z,5.46
2023-02-22T02:23:59.686Z,5.45
2023-02-22T02:27:02.927Z,5.46
2023-02-22T02:29:43.503Z,5.49
2023-02-22T02:32:59.847Z,5.41
2023-02-22T02:35:58.607Z,5.38
2023-02-22T02:38:50.603Z,5.32
2023-02-22T02:41:49.132Z,5.38
2023-02-22T02:44:37.815Z,5.41
2023-02-22T02:47:21.942Z,5.35
2023-02-22T02:49:54.833Z,5.38
2023-02-22T02:52:24.822Z,5.37
2023-02-22T02:54:52.746Z,5.41
2023-02-22T02:57:19.079Z,5.42
2023-02-22T02:59:46.295Z,5.43
2023-02-22T03:02:36.781Z,5.40
2023-02-22T03:05:12.942Z,5.37
2023-02-22T03:08:01.819Z,5.36
2023-02-22T03:10:37.652Z,5.40
2023-02-22T03:13:19.226Z,5.35
2023-02-22T03:16:16.612Z,5.33
2023-02-22T03:18:55.958Z,5.38
2023-02-22T03:21:31.483Z,5.36
2023-02-22T03:24:09.866Z,5.35
2023-02-22T03:26:43.387Z,5.36
2023-02-22T03:29:13.158Z,5.35
2023-02-22T03:31:43.546Z,5.29
2023-02-22T03:34:16.971Z,5.33
2023-02-22T03:36:49.981Z,5.38
2023-02-22T03:39:20.168Z,5.40
2023-02-22T03:41:51.296Z,5.41
2023-02-22T03:44:25.414Z,5.42
2023-02-22T03:46:56.640Z,5.44
2023-02-22T03:49:32.723Z,5.42
2023-02-22T03:52:01.023Z,5.46
2023-02-22T03:54:29.095Z,5.49
2023-02-22T03:57:00.802Z,5.52
2023-02-22T03:59:29.192Z,5.57
2023-02-22T04:01:56.887Z,5.53
2023-02-22T04:04:25.252Z,5.53
2023-02-22T04:06:52.444Z,5.45
2023-02-22T04:09:19.575Z,5.48
2023-02-22T04:11:45.988Z,5.49
2023-02-22T04:14:12.941Z,5.52
2023-02-22T04:16:39.670Z,5.51
2023-02-22T04:19:08.757Z,5.52
2023-02-22T04:21:37.535Z,5.41
2023-02-22T04:24:05.063Z,5.35
2023-02-22T04:26:31.946Z,5.41
2023-02-22T04:29:00.579Z,5.37
2023-02-22T04:31:33.989Z,5.43
2023-02-22T04:34:01.439Z,5.43
2023-02-22T04:36:31.752Z,5.43
2023-02-22T04:39:00.083Z,5.45
2023-02-22T04:41:28.517Z,5.48
2023-02-22T04:43:54.941Z,5.46
2023-02-22T04:46:23.592Z,5.46
2023-02-22T04:48:51.632Z,5.47
2023-02-22T04:51:21.020Z,5.47
2023-02-22T04:53:56.237Z,5.54
2023-02-22T04:56:22.686Z,5.58
2023-02-22T04:58:49.042Z,5.53
2023-02-22T05:01:16.481Z,5.55
2023-02-22T05:03:43.844Z,5.56
2023-02-22T05:06:12.283Z,5.50
2023-02-22T05:08:38.674Z,5.47
2023-02-22T05:11:05.682Z,5.48
2023-02-22T05:13:32.078Z,5.45
2023-02-22T05:15:58.460Z,5.39
2023-02-22T05:18:24.934Z,5.38
2023-02-22T05:20:51.313Z,5.35
2023-02-22T05:23:17.649Z,5.31
2023-02-22T05:25:44.380Z,5.14
2023-02-22T05:28:12.953Z,5.19
2023-02-22T05:30:39.852Z,5.15
2023-02-22T05:33:07.299Z,5.14
2023-02-22T05:35:33.802Z,5.13
2023-02-22T05:38:02.995Z,5.09
2023-02-22T05:40:30.192Z,4.98
2023-02-22T05:42:56.918Z,5.00
2023-02-22T05:45:25.850Z,4.99
2023-02-22T05:47:53.244Z,4.94
2023-02-22T05:50:20.964Z,4.96
2023-02-22T05:52:48.619Z,4.94
2023-02-22T05:55:18.260Z,4.93
2023-02-22T05:57:44.808Z,4.88
2023-02-22T06:00:16.366Z,4.88
2023-02-22T06:02:42.737Z,4.89
2023-02-22T06:05:09.161Z,4.89
2023-02-22T06:07:35.558Z,4.87
2023-02-22T06:10:01.976Z,4.87
2023-02-22T06:12:28.316Z,4.88
2023-02-22T06:14:54.775Z,4.88
2023-02-22T06:17:21.171Z,4.89
2023-02-22T06:19:47.531Z,4.90
2023-02-22T06:22:18.788Z,4.87
2023-02-22T06:24:45.233Z,4.88
2023-02-22T06:27:11.966Z,4.88
2023-02-22T06:29:38.337Z,4.87
2023-02-22T06:32:05.023Z,4.88
2023-02-22T06:34:31.486Z,4.90
2023-02-22T06:36:59.936Z,4.83
2023-02-22T06:39:26.436Z,4.70
2023-02-22T06:41:55.114Z,4.77
2023-02-22T06:44:21.947Z,4.79
2023-02-22T06:46:52.805Z,4.83
2023-02-22T06:49:20.351Z,4.84
2023-02-22T06:51:47.598Z,4.86
2023-02-22T06:54:14.491Z,4.86
2023-02-22T06:56:40.840Z,4.84
2023-02-22T06:59:08.330Z,4.79
2023-02-22T07:01:34.859Z,4.84
2023-02-22T07:04:01.275Z,4.86
2023-02-22T07:06:27.640Z,4.87
2023-02-22T07:08:54.641Z,4.85
2023-02-22T07:11:21.046Z,4.79
2023-02-22T07:13:47.367Z,4.71
2023-02-22T07:16:13.869Z,4.63
2023-02-22T07:18:40.195Z,4.55
2023-02-22T07:21:07.450Z,4.55
2023-02-22T07:23:33.838Z,4.57
2023-02-22T07:26:01.256Z,4.55
2023-02-22T07:28:27.589Z,4.59
2023-02-22T07:30:53.999Z,4.68
2023-02-22T07:33:20.482Z,4.70
2023-02-22T07:35:48.915Z,4.73
2023-02-22T07:38:17.813Z,4.83
2023-02-22T07:40:44.930Z,4.83
2023-02-22T07:43:19.595Z,4.89
2023-02-22T07:45:47.866Z,4.84
2023-02-22T07:48:17.337Z,4.97
2023-02-22T07:50:44.665Z,4.97
2023-02-22T07:53:18.004Z,4.89
2023-02-22T07:55:44.866Z,4.84
2023-02-22T07:58:15.252Z,4.99
2023-02-22T08:00:43.947Z,5.03
2023-02-22T08:03:13.133Z,5.02
2023-02-22T08:05:42.316Z,5.06
2023-02-22T08:08:08.966Z,5.09
2023-02-22T08:10:35.698Z,5.07
2023-02-22T08:13:02.860Z,4.96
2023-02-22T08:15:33.173Z,4.97
2023-02-22T08:18:01.079Z,5.04
2023-02-22T08:20:29.061Z,5.20
2023-02-22T08:22:56.222Z,5.22
2023-02-22T08:25:27.153Z,5.28
2023-02-22T08:27:58.734Z,5.20
2023-02-22T08:30:25.656Z,5.22
2023-02-22T08:32:52.275Z,5.21
2023-02-22T08:35:20.146Z,5.22
2023-02-22T08:37:48.986Z,5.23
2023-02-22T08:40:17.834Z,5.26
2023-02-22T08:42:44.337Z,5.32
2023-02-22T08:45:13.216Z,5.41
2023-02-22T08:47:40.361Z,5.44
2023-02-22T08:50:07.890Z,5.53
2023-02-22T08:52:35.020Z,5.47
2023-02-22T08:55:01.688Z,5.53
2023-02-22T08:57:28.060Z,5.48
2023-02-22T08:59:54.434Z,5.48
2023-02-22T09:02:22.286Z,5.37
2023-02-22T09:04:49.101Z,5.43
2023-02-22T09:07:15.626Z,5.50
2023-02-22T09:09:45.338Z,5.60
2023-02-22T09:12:12.080Z,5.58
2023-02-22T09:14:38.572Z,5.72
2023-02-22T09:17:05.968Z,5.86
2023-02-22T09:19:32.575Z,6.00
2023-02-22T09:22:02.120Z,6.14
2023-02-22T09:24:28.553Z,6.26
2023-02-22T09:26:55.235Z,6.46
2023-02-22T09:29:23.367Z,6.59
2023-02-22T09:31:52.887Z,6.60
2023-02-22T09:34:20.840Z,6.82
2023-02-22T09:36:48.067Z,6.93
2023-02-22T09:39:16.799Z,7.07
2023-02-22T09:42:05.687Z,7.15
2023-02-22T09:44:48.204Z,7.22
2023-02-22T09:47:19.884Z,7.40
2023-02-22T09:50:15.367Z,7.55
2023-02-22T09:53:22.029Z,7.77
2023-02-22T09:55:53.176Z,7.88
2023-02-22T09:58:26.859Z,8.01
2023-02-22T10:01:00.968Z,8.19
2023-02-22T10:03:36.512Z,8.27
2023-02-22T10:06:09.993Z,8.40
2023-02-22T10:08:41.438Z,8.52
2023-02-22T10:11:23.036Z,8.66
2023-02-22T10:13:57.916Z,8.73
2023-02-22T10:16:36.940Z,8.90
2023-02-22T10:19:28.256Z,9.06
2023-02-22T10:22:19.149Z,9.20
2023-02-22T10:24:45.477Z,9.33
2023-02-22T10:27:29.075Z,9.50
2023-02-22T10:30:23.326Z,9.65
2023-02-22T10:32:55.744Z,9.69
2023-02-22T10:35:27.885Z,9.73
2023-02-22T10:38:12.422Z,9.78
2023-02-22T10:40:39.238Z,9.84
2023-02-22T10:43:08.165Z,9.93
2023-02-22T10:45:36.885Z,10.04
2023-02-22T10:48:11.416Z,10.01
2023-02-22T10:50:41.451Z,10.11
2023-02-22T10:53:10.112Z,10.31
2023-02-22T10:55:57.300Z,10.29
2023-02-22T10:58:24.393Z,10.43
2023-02-22T11:00:51.576Z,10.59
2023-02-22T11:03:23.665Z,10.74
2023-02-22T11:05:50.709Z,10.86
2023-02-22T11:08:17.044Z,11.10
2023-02-22T11:10:43.471Z,11.22
2023-02-22T11:13:25.782Z,11.25
2023-02-22T11:15:54.318Z,11.34
2023-02-22T11:18:33.468Z,11.55
2023-02-22T11:21:10.122Z,11.67
2023-02-22T11:23:38.643Z,11.67
2023-02-22T11:26:14.216Z,11.72
2023-02-22T11:28:49.180Z,11.77
2023-02-22T11:31:18.011Z,12.01
2023-02-22T11:36:42.874Z,12.45
2023-02-22T11:39:34.101Z,12.61
2023-02-22T11:42:22.615Z,12.50
2023-02-22T11:44:50.745Z,12.42
2023-02-22T11:47:24.437Z,12.53
2023-02-22T11:49:53.342Z,12.75
2023-02-22T11:52:29.738Z,13.02
2023-02-22T11:55:09.879Z,13.14
2023-02-22T11:57:51.209Z,13.30
2023-02-22T12:00:36.311Z,13.27
2023-02-22T12:03:37.837Z,13.50
2023-02-22T12:06:16.423Z,13.69
2023-02-22T12:09:01.228Z,13.77
2023-02-22T12:12:03.864Z,13.93
2023-02-22T12:14:45.961Z,13.98
2023-02-22T12:17:32.209Z,14.10
2023-02-22T12:20:09.927Z,14.30
2023-02-22T12:22:46.018Z,14.42
2023-02-22T12:25:22.616Z,14.34
2023-02-22T12:27:54.012Z,14.32
2023-02-22T12:30:28.816Z,14.37
2023-02-22T12:32:59.918Z,14.61
2023-02-22T12:35:37.218Z,14.76
2023-02-22T12:38:22.950Z,15.04
2023-02-22T12:41:02.690Z,15.24
2023-02-22T12:43:35.603Z,15.52
2023-02-22T12:46:24.277Z,15.47
2023-02-22T12:49:01.303Z,15.48
2023-02-22T12:51:48.554Z,15.54
2023-02-22T12:54:31.915Z,15.62
2023-02-22T12:57:11.470Z,15.67
2023-02-22T12:59:55.735Z,15.62
2023-02-22T13:02:45.497Z,15.72
2023-02-22T13:05:20.503Z,15.82
2023-02-22T13:07:52.712Z,15.95
2023-02-22T13:10:44.418Z,16.05
2023-02-22T13:13:32.285Z,15.79
2023-02-22T13:16:10.704Z,15.71
2023-02-22T13:18:53.537Z,15.65
2023-02-22T13:21:23.627Z,15.56
2023-02-22T13:24:06.489Z,15.50
2023-02-22T13:26:35.807Z,15.52
2023-02-22T13:29:17.543Z,15.62
2023-02-22T13:31:53.187Z,15.63
2023-02-22T13:34:27.324Z,15.55
2023-02-22T13:37:19.783Z,15.43
2023-02-22T13:40:13.847Z,15.46
2023-02-22T13:43:14.778Z,15.47
2023-02-22T13:45:46.838Z,15.32
2023-02-22T13:48:39.759Z,15.37
2023-02-22T13:51:15.652Z,15.42
2023-02-22T13:53:50.262Z,15.51
2023-02-22T13:56:20.280Z,15.54
2023-02-22T13:58:49.865Z,15.28
2023-02-22T14:01:43.995Z,15.10
2023-02-22T14:04:20.930Z,15.04
2023-02-22T14:06:47.338Z,15.04
2023-02-22T14:09:19.096Z,15.07
2023-02-22T14:11:54.058Z,15.07
2023-02-22T14:14:20.865Z,15.01
2023-02-22T14:17:19.147Z,14.97
2023-02-22T14:20:01.080Z,14.95
2023-02-22T14:22:30.648Z,14.79
2023-02-22T14:24:58.276Z,14.66
2023-02-22T14:27:24.851Z,14.59
2023-02-22T14:29:57.403Z,14.67
2023-02-22T14:32:32.227Z,14.73
2023-02-22T14:35:04.315Z,14.80
2023-02-22T14:37:42.608Z,14.84
2023-02-22T14:40:27.601Z,14.94
2023-02-22T14:43:20.811Z,14.94
2023-02-22T14:45:54.902Z,14.91
2023-02-22T14:48:33.518Z,14.87
2023-02-22T14:51:15.650Z,14.75
2023-02-22T14:53:52.640Z,14.75
2023-02-22T14:56:41.024Z,14.81
2023-02-22T14:59:21.526Z,14.68
2023-02-22T15:02:01.744Z,14.52
2023-02-22T15:04:32.421Z,14.38
2023-02-22T15:07:01.084Z,14.33
2023-02-22T15:09:32.962Z,14.50
2023-02-22T15:12:03.899Z,14.53
2023-02-22T15:14:37.626Z,14.49
2023-02-22T15:17:22.732Z,14.49
2023-02-22T15:19:49.931Z,14.34
2023-02-22T15:22:30.066Z,14.32
2023-02-22T15:25:06.097Z,14.22
2023-02-22T15:27:36.869Z,14.13
2023-02-22T15:30:26.422Z,14.22
2023-02-22T15:33:04.125Z,14.14
2023-02-22T15:35:33.255Z,13.92
2023-02-22T15:38:11.554Z,13.99
2023-02-22T15:40:42.868Z,13.97
2023-02-22T15:43:24.042Z,13.98
2023-02-22T15:45:54.748Z,14.10
2023-02-22T15:48:21.317Z,13.97
2023-02-22T15:51:06.410Z,13.98
2023-02-22T15:53:47.766Z,13.93
2023-02-22T15:56:24.231Z,13.93
2023-02-22T15:58:51.595Z,13.76
2023-02-22T16:01:19.832Z,13.68
2023-02-22T16:03:51.261Z,13.48
2023-02-22T16:06:35.092Z,13.32
2023-02-22T16:09:25.256Z,13.22
2023-02-22T16:12:10.963Z,13.22
2023-02-22T16:14:40.063Z,13.23
2023-02-22T16:17:25.466Z,13.27
2023-02-22T16:19:52.854Z,13.15
2023-02-22T16:22:37.254Z,13.10
2023-02-22T16:25:30.946Z,13.05
2023-02-22T16:28:01.458Z,12.96
2023-02-22T16:30:34.378Z,13.01
2023-02-22T16:33:05.451Z,13.01
2023-02-22T16:35:35.282Z,12.93
2023-02-22T16:38:04.912Z,12.91
2023-02-22T16:40:36.003Z,12.83
2023-02-22T16:43:05.965Z,12.93
2023-02-22T16:45:32.829Z,12.88
2023-02-22T16:48:00.181Z,12.93
2023-02-22T16:50:26.684Z,12.92
2023-02-22T16:52:55.658Z,12.88
2023-02-22T16:55:22.355Z,12.92
2023-02-22T16:57:49.897Z,12.84
2023-02-22T17:00:30.918Z,12.77
2023-02-22T17:03:03.804Z,12.68
2023-02-22T17:05:31.741Z,12.55
2023-02-22T17:07:58.189Z,12.50
2023-02-22T17:10:25.989Z,12.51
2023-02-22T17:12:53.261Z,12.50
2023-02-22T17:15:24.593Z,12.48
2023-02-22T17:17:52.622Z,12.48
2023-02-22T17:20:31.608Z,12.44
2023-02-22T17:23:08.008Z,12.37
2023-02-22T17:25:42.333Z,12.31
2023-02-22T17:28:09.351Z,12.33
2023-02-22T17:30:36.368Z,12.35
2023-02-22T17:33:06.388Z,12.26
2023-02-22T17:35:36.987Z,12.26
2023-02-22T17:38:06.013Z,12.18
2023-02-22T17:40:39.790Z,12.08
2023-02-22T17:43:08.780Z,12.08
2023-02-22T17:45:38.281Z,12.06
2023-02-22T17:48:05.395Z,11.98
2023-02-22T17:50:31.803Z,12.00
2023-02-22T17:53:00.407Z,11.90
2023-02-22T17:55:27.502Z,11.82
2023-02-22T17:57:58.483Z,11.78
2023-02-22T18:00:34.000Z,11.73
2023-02-22T18:03:03.343Z,11.67
2023-02-22T18:05:32.874Z,11.71
2023-02-22T18:08:00.197Z,11.69
2023-02-22T18:10:27.154Z,11.65
2023-02-22T18:12:53.921Z,11.58
2023-02-22T18:15:23.471Z,11.53
2023-02-22T18:17:50.252Z,11.50
2023-02-22T18:20:30.815Z,11.52
2023-02-22T18:22:59.017Z,11.44
2023-02-22T18:25:26.539Z,11.44
2023-02-22T18:27:54.846Z,11.33
2023-02-22T18:30:21.714Z,11.31
2023-02-22T18:32:48.115Z,11.25
2023-02-22T18:35:14.461Z,11.21
2023-02-22T18:37:40.896Z,11.24
2023-02-22T18:40:10.519Z,11.28
2023-02-22T18:42:38.705Z,11.23
2023-02-22T18:45:07.155Z,11.10
2023-02-22T18:47:42.532Z,11.10
2023-02-22T18:50:10.649Z,11.05
2023-02-22T18:52:44.700Z,10.97
2023-02-22T18:55:19.242Z,10.86
2023-02-22T18:57:46.752Z,10.84
2023-02-22T19:00:16.103Z,10.79
2023-02-22T19:02:45.798Z,10.75
2023-02-22T19:05:17.191Z,10.70
2023-02-22T19:07:44.817Z,10.60
2023-02-22T19:10:11.322Z,10.57
2023-02-22T19:12:37.733Z,10.56
2023-02-22T19:15:04.410Z,10.46
2023-02-22T19:17:32.207Z,10.38
2023-02-22T19:19:58.601Z,10.34
2023-02-22T19:22:26.114Z,10.31
2023-02-22T19:24:56.296Z,10.23
2023-02-22T19:27:22.814Z,10.20
2023-02-22T19:29:49.870Z,10.16
2023-02-22T19:32:17.268Z,10.15
2023-02-22T19:34:44.002Z,10.10
2023-02-22T19:37:12.460Z,10.13
2023-02-22T19:39:39.010Z,10.06
2023-02-22T19:42:09.046Z,10.05
2023-02-22T19:44:36.863Z,9.97
2023-02-22T19:47:08.775Z,10.06
2023-02-22T19:49:37.062Z,10.02
2023-02-22T19:52:06.568Z,9.97
2023-02-22T19:54:33.530Z,10.01
2023-02-22T19:57:00.389Z,9.98
2023-02-22T19:59:27.339Z,9.95
2023-02-22T20:01:54.674Z,9.96
2023-02-22T20:04:21.566Z,9.93
2023-02-22T20:06:57.373Z,9.84
2023-02-22T20:09:29.702Z,9.75
2023-02-22T20:11:56.485Z,9.67
2023-02-22T20:14:25.934Z,9.66
2023-02-22T20:16:53.744Z,9.68
2023-02-22T20:19:22.398Z,9.69
2023-02-22T20:21:49.345Z,9.65
2023-02-22T20:24:18.110Z,9.63
2023-02-22T20:26:46.321Z,9.53
2023-02-22T20:29:13.757Z,9.57
2023-02-22T20:31:41.842Z,9.59
2023-02-22T20:34:09.683Z,9.50
2023-02-22T20:36:38.316Z,9.47
2023-02-22T20:39:13.030Z,9.52
2023-02-22T20:41:42.406Z,9.50
2023-02-22T20:44:12.001Z,9.51
2023-02-22T20:46:38.343Z,9.46
2023-02-22T20:49:11.021Z,9.50
2023-02-22T20:51:39.473Z,9.48
2023-02-22T20:54:06.543Z,9.54
2023-02-22T20:56:33.001Z,9.49
2023-02-22T20:59:02.438Z,9.49
2023-02-22T21:01:29.631Z,9.53
2023-02-22T21:04:00.973Z,9.47
2023-02-22T21:06:28.625Z,9.49
2023-02-22T21:08:57.910Z,9.50
2023-02-22T21:11:27.158Z,9.50
2023-02-22T21:13:53.843Z,9.49
2023-02-22T21:16:29.649Z,9.51
2023-02-22T21:18:58.939Z,9.50
2023-02-22T21:21:27.382Z,9.44
2023-02-22T21:23:56.203Z,9.47
2023-02-22T21:26:27.417Z,9.35
2023-02-22T21:28:54.970Z,9.41
2023-02-22T21:31:23.829Z,9.39
2023-02-22T21:33:52.710Z,9.34
2023-02-22T21:36:20.471Z,9.31
2023-02-22T21:38:53.060Z,9.32
2023-02-22T21:41:21.763Z,9.28
2023-02-22T21:43:50.144Z,9.31
2023-02-22T21:46:17.103Z,9.32
2023-02-22T21:48:48.807Z,9.32
2023-02-22T21:51:20.046Z,9.27
2023-02-22T21:53:52.242Z,9.29
2023-02-22T21:56:24.180Z,9.23
2023-02-22T21:58:58.989Z,9.26
2023-02-22T22:01:38.674Z,9.26
2023-02-22T22:04:05.134Z,9.19
2023-02-22T22:06:33.960Z,9.15
2023-02-22T22:09:00.345Z,9.16
2023-02-22T22:11:27.414Z,9.08
2023-02-22T22:13:57.323Z,9.08
2023-02-22T22:16:26.766Z,9.08
2023-02-22T22:18:54.718Z,9.05
2023-02-22T22:21:23.502Z,9.02
2023-02-22T22:23:54.164Z,9.03
2023-02-22T22:26:20.911Z,9.07
2023-02-22T22:28:49.626Z,9.03
2023-02-22T22:31:17.318Z,9.00
2023-02-22T22:33:44.776Z,9.02
2023-02-22T22:36:13.880Z,9.05
2023-02-22T22:38:40.338Z,9.03
2023-02-22T22:41:08.213Z,8.94
2023-02-22T22:43:36.467Z,8.98
2023-02-22T22:46:05.275Z,9.00
2023-02-22T22:48:35.880Z,8.99
2023-02-22T22:51:06.389Z,8.97
2023-02-22T22:53:34.082Z,8.93
2023-02-22T22:56:05.979Z,8.90
2023-02-22T22:58:33.806Z,8.89
2023-02-22T23:01:05.779Z,8.86
2023-02-22T23:03:38.316Z,8.90
2023-02-22T23:06:05.362Z,8.90
2023-02-22T23:08:42.852Z,8.87
2023-02-22T23:11:12.673Z,8.82
2023-02-22T23:13:39.505Z,8.82
2023-02-22T23:16:12.620Z,8.76
2023-02-22T23:18:43.047Z,8.75
2023-02-22T23:21:10.575Z,8.77
2023-02-22T23:23:37.868Z,8.73
2023-02-22T23:26:11.308Z,8.80
2023-02-22T23:28:39.362Z,8.76
2023-02-22T23:31:10.121Z,8.77
2023-02-22T23:33:38.170Z,8.80
2023-02-22T23:36:05.779Z,8.80
2023-02-22T23:38:34.665Z,8.79
2023-02-22T23:41:02.704Z,8.80
2023-02-22T23:43:32.435Z,8.78
2023-02-22T23:46:10.607Z,8.75
2023-02-22T23:48:46.553Z,8.77
2023-02-22T23:51:15.904Z,8.79
2023-02-22T23:53:45.955Z,8.76
2023-02-22T23:56:23.808Z,8.79
2023-02-22T23:58:51.784Z,8.73
